Terminal Aerodrome Forecast
Issued by NWS Mt. Holly, NJ

Home | Current Version | Previous Version | Text Only | Print | Product List | Glossary On
Versions: 1 2 3 4 5 6 7 8 9 10 11 12 13 14 15 16 17 18 19 20
000
FTUS41 KPHI 301124
TAFRDG
TAF
KRDG 301124Z 3012/0112 05004KT P6SM OVC035
     FM301600 08004KT P6SM OVC025
     FM302200 11006KT P6SM OVC015
     FM010300 13008KT 4SM BR OVC006
     FM010600 13005KT 1SM BR OVC004=

USA.gov is the U.S. government's official web portal to all federal, state and local government web resources and services.